createdAt,value
2019-02-24T00:00:41.838Z,13.55
2019-02-24T00:03:24.332Z,13.72
2019-02-24T00:06:06.275Z,13.15
2019-02-24T00:08:46.788Z,17.73
2019-02-24T00:11:36.104Z,10.82
2019-02-24T00:14:17.886Z,11.08
2019-02-24T00:16:59.592Z,16.82
2019-02-24T00:19:42.337Z,19.98
2019-02-24T00:22:24.872Z,30.25
2019-02-24T00:25:07.495Z,20.82
2019-02-24T00:27:51.375Z,29.32
2019-02-24T00:30:33.741Z,12.63
2019-02-24T00:33:17.713Z,10.58
2019-02-24T00:36:00.023Z,12.30
2019-02-24T00:38:42.312Z,13.78
2019-02-24T00:41:23.975Z,12.23
2019-02-24T00:44:04.730Z,9.00
2019-02-24T00:46:54.036Z,13.25
2019-02-24T00:49:36.768Z,13.10
2019-02-24T00:52:18.858Z,13.68
2019-02-24T00:54:59.519Z,10.90
2019-02-24T00:57:48.848Z,15.20
2019-02-24T01:00:30.748Z,10.32
2019-02-24T01:03:12.929Z,10.03
2019-02-24T01:05:55.041Z,11.43
2019-02-24T01:08:37.360Z,9.03
2019-02-24T01:11:19.621Z,15.23
2019-02-24T01:14:02.432Z,10.20
2019-02-24T01:16:45.447Z,12.88
2019-02-24T01:19:27.764Z,14.60
2019-02-24T01:22:09.970Z,14.03
2019-02-24T01:24:52.416Z,12.65
2019-02-24T01:27:33.154Z,16.97
2019-02-24T01:30:23.747Z,12.53
2019-02-24T01:33:06.212Z,13.48
2019-02-24T01:35:48.673Z,14.75
2019-02-24T01:38:30.940Z,13.88
2019-02-24T01:41:13.480Z,11.22
2019-02-24T01:43:55.223Z,15.60
2019-02-24T01:46:37.752Z,13.55
2019-02-24T01:49:20.716Z,11.33
2019-02-24T01:52:02.365Z,14.55
2019-02-24T01:54:44.565Z,9.43
2019-02-24T01:57:27.004Z,10.68
2019-02-24T02:00:09.345Z,16.87
2019-02-24T02:02:51.817Z,19.73
2019-02-24T02:05:34.666Z,9.73
2019-02-24T02:08:17.358Z,18.27
2019-02-24T02:11:00.268Z,17.10
2019-02-24T02:13:42.879Z,12.88
2019-02-24T02:16:24.876Z,11.68
2019-02-24T02:19:07.833Z,11.73
2019-02-24T02:21:49.942Z,11.95
2019-02-24T02:24:32.717Z,8.30
2019-02-24T02:27:15.552Z,9.05
2019-02-24T02:29:58.173Z,15.30
2019-02-24T02:32:40.712Z,13.38
2019-02-24T02:35:22.771Z,12.30
2019-02-24T02:38:05.504Z,14.40
2019-02-24T02:40:48.120Z,12.33
2019-02-24T02:43:30.460Z,15.43
2019-02-24T02:48:53.864Z,13.85
2019-02-24T02:51:35.816Z,12.43
2019-02-24T02:54:17.761Z,11.38
2019-02-24T02:57:00.403Z,12.55
2019-02-24T02:59:42.753Z,9.45
2019-02-24T03:02:25.068Z,11.10
2019-02-24T03:05:06.872Z,9.63
2019-02-24T03:07:55.781Z,11.48
2019-02-24T03:10:37.875Z,8.05
2019-02-24T03:13:20.170Z,11.15
2019-02-24T03:16:02.608Z,9.75
2019-02-24T03:18:43.078Z,9.95
2019-02-24T03:21:32.483Z,12.90
2019-02-24T03:24:14.358Z,11.90
2019-02-24T03:26:56.973Z,9.55
2019-02-24T03:29:39.475Z,12.10
2019-02-24T03:32:21.914Z,7.75
2019-02-24T03:35:04.312Z,11.22
2019-02-24T03:37:46.158Z,11.80
2019-02-24T03:40:28.218Z,13.28
2019-02-24T03:43:10.936Z,14.58
2019-02-24T03:45:53.462Z,12.40
2019-02-24T03:48:36.002Z,14.43
2019-02-24T03:51:18.922Z,16.00
2019-02-24T03:54:00.674Z,8.65
2019-02-24T03:56:43.197Z,10.80
2019-02-24T03:59:25.897Z,9.53
2019-02-24T04:02:08.436Z,9.48
2019-02-24T04:04:51.288Z,7.83
2019-02-24T04:07:33.855Z,12.60
2019-02-24T04:10:16.884Z,13.25
2019-02-24T04:12:58.881Z,6.15
2019-02-24T04:15:40.840Z,10.88
2019-02-24T04:18:23.792Z,13.28
2019-02-24T04:21:05.926Z,8.35
2019-02-24T04:23:48.010Z,8.25
2019-02-24T04:26:30.112Z,9.95
2019-02-24T04:29:12.025Z,10.45
2019-02-24T04:31:54.334Z,11.43
2019-02-24T04:34:36.880Z,10.90
2019-02-24T04:37:19.726Z,8.80
2019-02-24T04:40:01.782Z,12.37
2019-02-24T04:42:45.281Z,12.45
2019-02-24T04:45:27.420Z,11.78
2019-02-24T04:48:10.050Z,15.85
2019-02-24T04:50:50.559Z,8.65
2019-02-24T04:53:40.152Z,11.00
2019-02-24T04:56:23.564Z,10.70
2019-02-24T04:59:06.302Z,10.43
2019-02-24T05:01:48.306Z,9.95
2019-02-24T05:04:30.813Z,8.60
2019-02-24T05:07:14.024Z,11.28
2019-02-24T05:09:55.970Z,9.80
2019-02-24T05:12:38.696Z,11.28
2019-02-24T05:15:20.540Z,6.87
2019-02-24T05:18:03.654Z,11.18
2019-02-24T05:20:46.261Z,12.10
2019-02-24T05:23:27.027Z,10.85
2019-02-24T05:26:16.695Z,8.05
2019-02-24T05:28:59.274Z,9.28
2019-02-24T05:31:40.986Z,9.85
2019-02-24T05:34:22.711Z,13.08
2019-02-24T05:37:06.391Z,7.45
2019-02-24T05:39:49.224Z,8.85
2019-02-24T05:42:31.750Z,8.83
2019-02-24T05:45:13.993Z,8.40
2019-02-24T05:47:56.449Z,10.65
2019-02-24T05:50:38.668Z,11.28
2019-02-24T05:53:20.521Z,9.58
2019-02-24T05:56:03.104Z,8.23
2019-02-24T05:58:44.772Z,12.23
2019-02-24T06:01:26.601Z,10.85
2019-02-24T06:04:09.741Z,10.85
2019-02-24T06:06:50.353Z,11.05
2019-02-24T06:09:39.684Z,8.28
2019-02-24T06:12:22.580Z,9.70
2019-02-24T06:15:04.381Z,17.02
2019-02-24T06:17:46.700Z,13.80
2019-02-24T06:20:28.709Z,11.00
2019-02-24T06:23:09.062Z,11.95
2019-02-24T06:25:58.716Z,8.80
2019-02-24T06:28:41.327Z,9.95
2019-02-24T06:31:23.441Z,11.57
2019-02-24T06:34:06.414Z,12.70
2019-02-24T06:36:48.487Z,8.35
2019-02-24T06:39:31.269Z,11.93
2019-02-24T06:42:13.160Z,8.88
2019-02-24T06:44:55.649Z,11.85
2019-02-24T06:47:37.686Z,6.62
2019-02-24T06:50:19.975Z,7.45
2019-02-24T06:53:01.863Z,14.28
2019-02-24T06:55:44.005Z,6.42
2019-02-24T06:58:26.262Z,8.60
2019-02-24T07:01:08.647Z,10.40
2019-02-24T07:03:51.035Z,9.78
2019-02-24T07:06:33.305Z,10.10
2019-02-24T07:09:16.699Z,12.47
2019-02-24T07:11:58.760Z,15.28
2019-02-24T07:14:41.269Z,9.13
2019-02-24T07:17:23.043Z,8.63
2019-02-24T07:20:05.378Z,9.20
2019-02-24T07:22:47.202Z,10.03
2019-02-24T07:25:28.844Z,12.78
2019-02-24T07:28:10.878Z,10.58
2019-02-24T07:30:53.960Z,13.03
2019-02-24T07:33:35.720Z,10.77
2019-02-24T07:36:17.968Z,15.23
2019-02-24T07:39:00.011Z,10.55
2019-02-24T07:41:44.433Z,9.53
2019-02-24T07:44:26.188Z,11.33
2019-02-24T07:47:09.247Z,12.07
2019-02-24T07:49:51.966Z,9.05
2019-02-24T07:52:34.569Z,12.85
2019-02-24T07:55:17.036Z,13.13
2019-02-24T07:57:57.451Z,11.08
2019-02-24T08:00:47.059Z,12.73
2019-02-24T08:03:30.386Z,7.50
2019-02-24T08:06:12.116Z,10.60
2019-02-24T08:08:54.426Z,12.77
2019-02-24T08:11:36.234Z,11.47
2019-02-24T08:14:19.337Z,10.85
2019-02-24T08:17:01.543Z,12.07
2019-02-24T08:19:43.912Z,13.83
2019-02-24T08:22:26.031Z,19.67
2019-02-24T08:25:08.324Z,11.27
2019-02-24T08:27:50.869Z,9.90
2019-02-24T08:30:41.252Z,10.83
2019-02-24T08:33:17.380Z,13.90
2019-02-24T08:35:59.208Z,10.73
2019-02-24T08:38:41.240Z,9.00
2019-02-24T08:41:23.606Z,8.60
2019-02-24T08:44:06.993Z,9.23
2019-02-24T08:46:50.515Z,8.33
2019-02-24T08:49:33.165Z,10.50
2019-02-24T08:52:15.769Z,7.33
2019-02-24T08:54:58.422Z,16.13
2019-02-24T08:57:40.976Z,11.23
2019-02-24T09:00:23.846Z,14.87
2019-02-24T09:03:05.940Z,9.07
2019-02-24T09:05:48.661Z,11.23
2019-02-24T09:08:31.178Z,14.83
2019-02-24T09:11:11.773Z,8.03
2019-02-24T09:14:01.688Z,8.10
2019-02-24T09:16:44.352Z,13.03
2019-02-24T09:19:26.579Z,12.00
2019-02-24T09:22:09.318Z,13.10
2019-02-24T09:24:51.624Z,11.40
2019-02-24T09:27:33.427Z,9.10
2019-02-24T09:30:16.180Z,10.27
2019-02-24T09:33:22.484Z,8.33
2019-02-24T09:36:05.133Z,11.07
2019-02-24T09:38:47.044Z,12.40
2019-02-24T09:41:29.316Z,14.63
2019-02-24T09:44:11.788Z,8.67
2019-02-24T09:46:54.510Z,8.00
2019-02-24T09:49:36.457Z,9.40
2019-02-24T09:52:18.962Z,9.40
2019-02-24T09:55:01.047Z,13.17
2019-02-24T09:57:44.265Z,8.80
2019-02-24T10:00:25.997Z,8.70
2019-02-24T10:03:08.713Z,9.83
2019-02-24T10:05:50.502Z,10.57
2019-02-24T10:08:33.242Z,9.87
2019-02-24T10:11:15.764Z,14.03
2019-02-24T10:13:57.970Z,10.23
2019-02-24T10:16:39.978Z,11.00
2019-02-24T10:19:22.385Z,13.17
2019-02-24T10:22:04.813Z,9.60
2019-02-24T10:24:47.231Z,12.27
2019-02-24T10:27:29.113Z,8.80
2019-02-24T10:30:11.596Z,10.97
2019-02-24T10:32:53.734Z,9.70
2019-02-24T10:35:36.350Z,11.20
2019-02-24T10:38:18.670Z,8.97
2019-02-24T10:41:01.313Z,14.83
2019-02-24T10:43:43.378Z,11.00
2019-02-24T10:46:25.633Z,7.63
2019-02-24T10:49:07.636Z,8.30
2019-02-24T10:51:49.389Z,7.80
2019-02-24T10:54:31.381Z,9.83
2019-02-24T10:57:13.128Z,9.57
2019-02-24T10:59:55.054Z,6.70
2019-02-24T11:02:36.928Z,10.90
2019-02-24T11:05:19.639Z,9.70
2019-02-24T11:08:01.397Z,8.60
2019-02-24T11:10:42.381Z,8.30
2019-02-24T11:13:31.681Z,6.50
2019-02-24T11:16:14.536Z,12.80
2019-02-24T11:18:56.501Z,8.33
2019-02-24T11:21:38.589Z,8.30
2019-02-24T11:24:21.445Z,14.43
2019-02-24T11:27:03.663Z,10.03
2019-02-24T11:29:46.308Z,8.13
2019-02-24T11:32:28.725Z,8.00
2019-02-24T11:35:10.440Z,8.77
2019-02-24T11:37:53.852Z,9.63
2019-02-24T11:40:36.293Z,6.90
2019-02-24T11:43:18.923Z,8.70
2019-02-24T11:46:01.429Z,6.80
2019-02-24T11:48:43.820Z,9.57
2019-02-24T11:51:25.443Z,8.80
2019-02-24T11:54:08.364Z,7.83
2019-02-24T11:56:50.580Z,12.87
2019-02-24T11:59:33.277Z,6.23
2019-02-24T12:02:15.768Z,7.97
2019-02-24T12:04:57.985Z,8.07
2019-02-24T12:07:40.457Z,6.73
2019-02-24T12:10:22.720Z,8.10
2019-02-24T12:13:04.612Z,8.90
2019-02-24T12:15:47.643Z,8.80
2019-02-24T12:18:29.428Z,6.70
2019-02-24T12:21:11.948Z,7.63
2019-02-24T12:23:54.821Z,7.33
2019-02-24T12:26:37.614Z,7.50
2019-02-24T12:29:19.273Z,9.00
2019-02-24T12:32:01.832Z,8.33
2019-02-24T12:34:44.492Z,7.00
2019-02-24T12:37:27.276Z,9.10
2019-02-24T12:40:09.819Z,7.00
2019-02-24T12:42:51.845Z,7.60
2019-02-24T12:45:34.325Z,6.27
2019-02-24T12:48:18.045Z,6.50
2019-02-24T12:51:00.140Z,8.27
2019-02-24T12:53:42.020Z,8.60
2019-02-24T12:56:24.762Z,6.83
2019-02-24T12:59:07.596Z,5.30
2019-02-24T13:01:50.085Z,8.43
2019-02-24T13:04:32.887Z,6.93
2019-02-24T13:07:14.716Z,5.90
2019-02-24T13:09:57.457Z,6.70
2019-02-24T13:12:39.606Z,8.57
2019-02-24T13:15:22.350Z,8.23
2019-02-24T13:18:04.381Z,8.00
2019-02-24T13:20:47.077Z,7.27
2019-02-24T13:23:29.112Z,7.93
2019-02-24T13:26:11.642Z,5.13
2019-02-24T13:28:52.146Z,7.80
2019-02-24T13:34:42.770Z,6.47
2019-02-24T13:37:24.669Z,6.70
2019-02-24T13:40:07.205Z,7.00
2019-02-24T13:42:48.917Z,6.50
2019-02-24T13:45:29.539Z,8.30
2019-02-24T13:48:18.956Z,7.63
2019-02-24T13:51:01.180Z,8.60
2019-02-24T13:53:43.591Z,9.40
2019-02-24T13:56:26.362Z,5.97
2019-02-24T13:59:08.748Z,9.33
2019-02-24T14:01:51.608Z,7.00
2019-02-24T14:04:34.028Z,8.00
2019-02-24T14:07:16.499Z,6.77
2019-02-24T14:09:58.220Z,6.27
2019-02-24T14:12:41.204Z,7.67
2019-02-24T14:15:23.372Z,6.40
2019-02-24T14:18:06.016Z,6.13
2019-02-24T14:20:49.417Z,9.97
2019-02-24T14:23:29.844Z,7.13
2019-02-24T14:29:26.956Z,7.13
2019-02-24T14:32:09.425Z,9.33
2019-02-24T14:34:51.914Z,9.10
2019-02-24T14:37:33.828Z,10.07
2019-02-24T14:40:17.084Z,8.03
2019-02-24T14:42:58.886Z,10.77
2019-02-24T14:45:39.704Z,8.13
2019-02-24T14:51:36.172Z,7.33
2019-02-24T14:54:18.589Z,9.93
2019-02-24T14:57:00.924Z,8.50
2019-02-24T14:59:43.382Z,10.73
2019-02-24T15:02:25.477Z,8.97
2019-02-24T15:05:11.460Z,12.03
2019-02-24T15:07:53.912Z,8.03
2019-02-24T15:10:36.508Z,11.50
2019-02-24T15:13:18.485Z,7.83
2019-02-24T15:16:01.172Z,8.10
2019-02-24T15:18:43.139Z,14.90
2019-02-24T15:21:25.704Z,7.67
2019-02-24T15:24:09.028Z,10.07
2019-02-24T15:26:51.643Z,11.57
2019-02-24T15:29:33.516Z,8.73
2019-02-24T15:32:15.966Z,8.33
2019-02-24T15:34:58.447Z,8.80
2019-02-24T15:37:40.400Z,8.00
2019-02-24T15:40:22.840Z,7.87
2019-02-24T15:43:05.452Z,13.77
2019-02-24T15:45:48.340Z,11.43
2019-02-24T15:48:30.884Z,8.53
2019-02-24T15:51:11.513Z,10.30
2019-02-24T15:54:01.240Z,11.50
2019-02-24T15:56:43.500Z,21.23
2019-02-24T15:59:26.313Z,12.80
2019-02-24T16:02:08.733Z,8.23
2019-02-24T16:04:51.190Z,9.83
2019-02-24T16:07:33.456Z,14.83
2019-02-24T16:10:16.379Z,13.47
2019-02-24T16:12:56.872Z,16.80
2019-02-24T16:18:53.085Z,8.17
2019-02-24T16:21:36.051Z,66.17
2019-02-24T16:24:18.360Z,64.10
2019-02-24T16:27:01.272Z,46.07
2019-02-24T16:29:43.903Z,32.20
2019-02-24T16:32:26.500Z,29.13
2019-02-24T16:35:08.923Z,20.13
2019-02-24T16:37:51.709Z,19.20
2019-02-24T16:40:34.489Z,15.40
2019-02-24T16:43:17.264Z,15.73
2019-02-24T16:45:59.757Z,10.90
2019-02-24T16:48:43.337Z,19.63
2019-02-24T16:51:26.073Z,11.80
2019-02-24T16:54:08.489Z,11.47
2019-02-24T16:56:51.332Z,9.00
2019-02-24T16:59:33.615Z,8.87
2019-02-24T17:02:22.564Z,8.07
2019-02-24T17:04:59.872Z,10.97
2019-02-24T17:07:42.540Z,7.77
2019-02-24T17:10:25.297Z,8.80
2019-02-24T17:13:08.145Z,7.83
2019-02-24T17:15:50.526Z,5.93
2019-02-24T17:18:33.157Z,7.00
2019-02-24T17:21:15.730Z,7.40
2019-02-24T17:23:56.795Z,10.00
2019-02-24T17:26:47.792Z,6.30
2019-02-24T17:29:29.621Z,6.67
2019-02-24T17:32:12.197Z,6.77
2019-02-24T17:34:54.221Z,8.80
2019-02-24T17:37:37.669Z,7.50
2019-02-24T17:40:20.691Z,6.90
2019-02-24T17:43:03.415Z,11.13
2019-02-24T17:45:45.259Z,10.77
2019-02-24T17:51:26.919Z,9.40
2019-02-24T17:54:07.273Z,8.20
2019-02-24T17:56:50.585Z,10.97
2019-02-24T17:59:40.218Z,7.60
2019-02-24T18:02:16.923Z,10.63
2019-02-24T18:04:58.874Z,9.10
2019-02-24T18:07:40.797Z,5.47
2019-02-24T18:10:22.039Z,5.67
2019-02-24T18:13:11.624Z,11.20
2019-02-24T18:15:53.873Z,10.60
2019-02-24T18:18:35.958Z,8.17
2019-02-24T18:21:19.446Z,10.50
2019-02-24T18:24:02.177Z,8.87
2019-02-24T18:26:43.079Z,13.67
2019-02-24T18:29:32.456Z,18.50
2019-02-24T18:32:15.078Z,11.50
2019-02-24T18:34:57.521Z,11.17
2019-02-24T18:37:39.874Z,12.00
2019-02-24T18:40:22.499Z,10.33
2019-02-24T18:43:04.876Z,9.90
2019-02-24T18:45:47.525Z,6.40
2019-02-24T18:48:29.858Z,10.50
2019-02-24T18:51:12.231Z,8.00
2019-02-24T18:53:54.942Z,8.13
2019-02-24T18:56:37.232Z,9.43
2019-02-24T18:59:19.525Z,9.07
2019-02-24T19:02:02.088Z,8.10
2019-02-24T19:04:44.600Z,8.83
2019-02-24T19:07:27.772Z,8.67
2019-02-24T19:10:10.923Z,7.23
2019-02-24T19:12:52.748Z,9.90
2019-02-24T19:15:34.903Z,10.83
2019-02-24T19:18:17.876Z,11.83
2019-02-24T19:20:59.780Z,8.57
2019-02-24T19:23:41.636Z,10.30
2019-02-24T19:26:22.279Z,8.20
2019-02-24T19:29:04.063Z,11.03
2019-02-24T19:31:45.920Z,6.00
2019-02-24T19:34:28.428Z,6.90
2019-02-24T19:37:10.876Z,13.67
2019-02-24T19:39:54.461Z,11.27
2019-02-24T19:42:36.434Z,10.00
2019-02-24T19:45:19.317Z,8.33
2019-02-24T19:48:02.304Z,8.77
2019-02-24T19:50:44.585Z,11.60
2019-02-24T19:53:27.325Z,5.97
2019-02-24T19:56:09.599Z,9.97
2019-02-24T19:58:51.488Z,7.70
2019-02-24T20:01:33.464Z,7.53
2019-02-24T20:04:16.457Z,11.40
2019-02-24T20:06:59.385Z,7.50
2019-02-24T20:09:42.486Z,11.27
2019-02-24T20:12:25.144Z,6.10
2019-02-24T20:15:07.953Z,7.80
2019-02-24T20:17:50.248Z,8.03
2019-02-24T20:20:32.342Z,6.37
2019-02-24T20:23:14.096Z,8.20
2019-02-24T20:25:56.848Z,8.13
2019-02-24T20:31:29.871Z,9.27
2019-02-24T20:34:11.626Z,6.87
2019-02-24T20:36:54.002Z,6.73
2019-02-24T20:39:36.148Z,9.00
2019-02-24T20:42:18.427Z,8.63
2019-02-24T20:44:58.903Z,8.53
2019-02-24T20:50:55.626Z,13.40
2019-02-24T20:53:37.831Z,11.00
2019-02-24T20:56:20.709Z,10.33
2019-02-24T20:59:02.632Z,7.40
2019-02-24T21:01:45.442Z,8.10
2019-02-24T21:04:27.654Z,9.20
2019-02-24T21:07:09.381Z,13.33
2019-02-24T21:09:52.339Z,9.60
2019-02-24T21:12:34.792Z,15.13
2019-02-24T21:15:16.955Z,11.77
2019-02-24T21:17:58.647Z,13.48
2019-02-24T21:20:40.881Z,11.18
2019-02-24T21:23:22.821Z,9.35
2019-02-24T21:26:04.737Z,13.47
2019-02-24T21:28:46.379Z,11.93
2019-02-24T21:31:28.189Z,8.70
2019-02-24T21:36:51.712Z,10.53
2019-02-24T21:39:34.600Z,11.70
2019-02-24T21:42:17.011Z,11.87
2019-02-24T21:44:59.616Z,13.03
2019-02-24T21:47:42.354Z,11.87
2019-02-24T21:50:24.533Z,7.50
2019-02-24T21:53:06.446Z,9.78
2019-02-24T21:55:49.035Z,13.32
2019-02-24T21:58:31.777Z,11.67
2019-02-24T22:01:13.837Z,14.10
2019-02-24T22:03:56.688Z,11.45
2019-02-24T22:06:38.441Z,16.00
2019-02-24T22:09:21.286Z,10.20
2019-02-24T22:12:03.791Z,12.80
2019-02-24T22:14:45.901Z,14.20
2019-02-24T22:17:28.048Z,11.27
2019-02-24T22:20:10.097Z,13.80
2019-02-24T22:22:52.052Z,10.08
2019-02-24T22:25:34.725Z,8.80
2019-02-24T22:28:17.235Z,10.47
2019-02-24T22:31:00.225Z,9.95
2019-02-24T22:33:42.189Z,10.37
2019-02-24T22:36:24.792Z,13.40
2019-02-24T22:39:07.332Z,13.73
2019-02-24T22:41:50.593Z,10.50
2019-02-24T22:44:31.373Z,10.70
2019-02-24T22:47:20.833Z,12.63
2019-02-24T22:50:03.477Z,16.03
2019-02-24T22:52:46.098Z,8.80
2019-02-24T22:55:28.224Z,11.80
2019-02-24T22:58:11.114Z,13.03
2019-02-24T23:01:12.251Z,9.58
2019-02-24T23:03:55.792Z,9.35
2019-02-24T23:06:37.760Z,13.83
2019-02-24T23:09:20.176Z,9.40
2019-02-24T23:12:00.572Z,10.75
2019-02-24T23:14:51.129Z,14.05
2019-02-24T23:17:32.938Z,12.78
2019-02-24T23:20:14.968Z,12.37
2019-02-24T23:22:57.291Z,9.63
2019-02-24T23:25:37.980Z,12.58
2019-02-24T23:28:27.633Z,10.17
2019-02-24T23:31:08.132Z,12.40
2019-02-24T23:33:57.756Z,10.30
2019-02-24T23:36:40.045Z,10.45
2019-02-24T23:39:21.928Z,9.83
2019-02-24T23:42:03.917Z,8.07
2019-02-24T23:44:46.236Z,13.17
2019-02-24T23:47:28.659Z,11.12
2019-02-24T23:50:11.195Z,11.08
2019-02-24T23:52:54.005Z,8.83
2019-02-24T23:55:36.468Z,13.33
2019-02-24T23:58:20.378Z,16.07
